createdAt,value
2023-05-22T00:01:56.105Z,7.57
2023-05-22T00:04:23.050Z,5.63
2023-05-22T00:06:50.187Z,8.20
2023-05-22T00:09:17.134Z,5.53
2023-05-22T00:11:44.086Z,6.15
2023-05-22T00:14:13.425Z,4.88
2023-05-22T00:16:41.213Z,6.47
2023-05-22T00:19:13.726Z,7.90
2023-05-22T00:21:40.700Z,5.05
2023-05-22T00:24:08.057Z,9.98
2023-05-22T00:26:34.991Z,6.97
2023-05-22T00:29:01.886Z,6.75
2023-05-22T00:31:28.718Z,8.93
2023-05-22T00:33:55.642Z,6.53
2023-05-22T00:36:22.484Z,8.10
2023-05-22T00:38:49.435Z,7.25
2023-05-22T00:41:16.370Z,12.93
2023-05-22T00:43:45.144Z,5.90
2023-05-22T00:46:12.746Z,8.63
2023-05-22T00:48:39.909Z,10.48
2023-05-22T00:51:08.271Z,7.85
2023-05-22T00:53:35.744Z,10.23
2023-05-22T00:56:03.613Z,9.60
2023-05-22T00:58:30.654Z,6.75
2023-05-22T01:00:57.618Z,9.55
2023-05-22T01:03:26.886Z,8.25
2023-05-22T01:05:55.703Z,8.77
2023-05-22T01:08:23.017Z,9.27
2023-05-22T01:11:01.015Z,13.52
2023-05-22T01:13:40.783Z,7.25
2023-05-22T01:16:18.903Z,9.73
2023-05-22T01:18:49.505Z,9.05
2023-05-22T01:21:24.256Z,11.48
2023-05-22T01:24:31.729Z,11.13
2023-05-22T01:27:35.143Z,10.52
2023-05-22T01:30:13.932Z,9.30
2023-05-22T01:32:42.549Z,10.27
2023-05-22T01:35:11.824Z,9.52
2023-05-22T01:37:39.174Z,9.23
2023-05-22T01:40:07.778Z,8.02
2023-05-22T01:42:35.392Z,6.85
2023-05-22T01:45:02.417Z,7.50
2023-05-22T01:47:29.317Z,9.02
2023-05-22T01:49:56.269Z,7.88
2023-05-22T01:52:41.773Z,9.10
2023-05-22T01:55:17.518Z,9.57
2023-05-22T01:57:54.902Z,6.85
2023-05-22T02:00:24.117Z,8.10
2023-05-22T02:03:15.087Z,9.30
2023-05-22T02:05:44.008Z,8.55
2023-05-22T02:08:11.889Z,10.63
2023-05-22T02:10:40.826Z,10.25
2023-05-22T02:13:08.133Z,10.52
2023-05-22T02:15:35.364Z,8.00
2023-05-22T02:18:03.149Z,11.63
2023-05-22T02:20:30.066Z,11.18
2023-05-22T02:22:56.945Z,8.35
2023-05-22T02:25:23.784Z,8.50
2023-05-22T02:27:50.745Z,8.13
2023-05-22T02:30:17.656Z,11.82
2023-05-22T02:32:44.572Z,10.00
2023-05-22T02:35:11.517Z,10.07
2023-05-22T02:37:38.526Z,8.88
2023-05-22T02:40:10.085Z,8.90
2023-05-22T02:42:36.973Z,11.95
2023-05-22T02:45:04.175Z,13.15
2023-05-22T02:47:31.111Z,9.98
2023-05-22T02:49:58.379Z,9.30
2023-05-22T02:52:25.365Z,8.60
2023-05-22T02:54:52.225Z,8.13
2023-05-22T02:57:19.209Z,8.00
2023-05-22T02:59:46.248Z,9.23
2023-05-22T03:02:13.886Z,10.70
2023-05-22T03:04:40.957Z,11.90
2023-05-22T03:07:08.067Z,9.05
2023-05-22T03:09:34.970Z,10.10
2023-05-22T03:12:01.759Z,10.95
2023-05-22T03:14:29.270Z,9.48
2023-05-22T03:16:56.727Z,8.57
2023-05-22T03:19:24.018Z,8.82
2023-05-22T03:21:51.018Z,7.03
2023-05-22T03:24:18.055Z,11.77
2023-05-22T03:26:45.028Z,7.50
2023-05-22T03:29:11.899Z,15.63
2023-05-22T03:31:38.684Z,13.77
2023-05-22T03:34:06.125Z,11.48
2023-05-22T03:36:36.210Z,7.32
2023-05-22T03:39:04.239Z,7.72
2023-05-22T03:41:31.298Z,7.68
2023-05-22T03:43:58.401Z,15.82
2023-05-22T03:46:25.719Z,11.23
2023-05-22T03:48:52.685Z,8.90
2023-05-22T03:51:20.415Z,10.25
2023-05-22T03:53:47.500Z,14.80
2023-05-22T03:56:14.380Z,14.55
2023-05-22T03:58:41.332Z,17.63
2023-05-22T04:01:10.005Z,10.10
2023-05-22T04:03:37.856Z,8.75
2023-05-22T04:06:05.870Z,11.00
2023-05-22T04:08:32.912Z,8.02
2023-05-22T04:10:59.864Z,9.23
2023-05-22T04:13:27.440Z,7.93
2023-05-22T04:15:54.546Z,10.68
2023-05-22T04:18:21.412Z,7.85
2023-05-22T04:20:48.466Z,11.77
2023-05-22T04:23:15.274Z,7.13
2023-05-22T04:25:42.175Z,8.48
2023-05-22T04:28:09.391Z,9.85
2023-05-22T04:30:40.495Z,8.65
2023-05-22T04:33:08.510Z,9.20
2023-05-22T04:35:35.466Z,10.23
2023-05-22T04:38:02.396Z,6.90
2023-05-22T04:40:30.451Z,10.32
2023-05-22T04:42:59.984Z,8.13
2023-05-22T04:45:28.729Z,5.85
2023-05-22T04:47:56.342Z,9.75
2023-05-22T04:50:24.223Z,9.45
2023-05-22T04:52:51.361Z,9.13
2023-05-22T04:55:19.454Z,5.97
2023-05-22T04:57:47.266Z,12.02
2023-05-22T05:00:16.893Z,11.88
2023-05-22T05:02:43.897Z,5.78
2023-05-22T05:05:10.813Z,6.47
2023-05-22T05:07:40.058Z,7.43
2023-05-22T05:10:07.640Z,6.45
2023-05-22T05:12:34.692Z,8.32
2023-05-22T05:15:02.056Z,9.48
2023-05-22T05:17:29.068Z,6.82
2023-05-22T05:19:56.009Z,9.63
2023-05-22T05:22:23.079Z,5.70
2023-05-22T05:24:49.987Z,5.93
2023-05-22T05:27:16.993Z,7.32
2023-05-22T05:29:43.921Z,6.45
2023-05-22T05:32:12.502Z,6.47
2023-05-22T05:34:39.597Z,5.65
2023-05-22T05:37:06.454Z,6.43
2023-05-22T05:39:33.388Z,6.03
2023-05-22T05:42:00.559Z,5.53
2023-05-22T05:44:27.472Z,8.23
2023-05-22T05:46:54.836Z,5.97
2023-05-22T05:49:22.329Z,5.82
2023-05-22T05:51:49.183Z,7.63
2023-05-22T05:54:16.091Z,5.25
2023-05-22T05:56:43.159Z,6.53
2023-05-22T05:59:10.075Z,5.60
2023-05-22T06:01:38.727Z,4.63
2023-05-22T06:04:05.839Z,3.40
2023-05-22T06:06:36.332Z,6.15
2023-05-22T06:09:06.336Z,6.20
2023-05-22T06:11:34.228Z,4.97
2023-05-22T06:14:05.044Z,7.10
2023-05-22T06:16:32.066Z,7.05
2023-05-22T06:18:59.895Z,4.50
2023-05-22T06:21:27.046Z,5.38
2023-05-22T06:23:53.958Z,6.18
2023-05-22T06:26:22.230Z,2.95
2023-05-22T06:28:49.133Z,9.50
2023-05-22T06:31:15.967Z,3.05
2023-05-22T06:33:43.512Z,4.95
2023-05-22T06:36:11.685Z,7.05
2023-05-22T06:38:39.266Z,3.10
2023-05-22T06:41:06.554Z,2.67
2023-05-22T06:43:33.733Z,4.65
2023-05-22T06:46:00.887Z,5.82
2023-05-22T06:48:27.841Z,5.13
2023-05-22T06:50:54.896Z,5.15
2023-05-22T06:53:23.909Z,5.32
2023-05-22T06:55:51.129Z,4.45
2023-05-22T06:58:18.108Z,3.38
2023-05-22T07:00:45.020Z,5.13
2023-05-22T07:03:12.078Z,8.90
2023-05-22T07:05:39.119Z,6.45
2023-05-22T07:08:06.344Z,5.18
2023-05-22T07:10:33.194Z,3.20
2023-05-22T07:13:00.120Z,3.58
2023-05-22T07:15:27.012Z,10.07
2023-05-22T07:17:54.004Z,6.07
2023-05-22T07:20:21.309Z,6.30
2023-05-22T07:22:48.221Z,4.75
2023-05-22T07:25:15.132Z,4.60
2023-05-22T07:27:41.941Z,5.80
2023-05-22T07:30:09.329Z,5.25
2023-05-22T07:32:36.229Z,3.60
2023-05-22T07:35:03.500Z,4.50
2023-05-22T07:37:31.750Z,3.85
2023-05-22T07:39:58.686Z,3.58
2023-05-22T07:42:26.159Z,7.72
2023-05-22T07:44:53.089Z,2.50
2023-05-22T07:47:19.929Z,5.70
2023-05-22T07:49:46.797Z,4.63
2023-05-22T07:52:13.677Z,2.85
2023-05-22T07:54:41.578Z,4.45
2023-05-22T07:57:09.294Z,6.03
2023-05-22T07:59:37.791Z,2.83
2023-05-22T08:02:05.732Z,7.60
2023-05-22T08:04:32.698Z,3.22
2023-05-22T08:06:59.535Z,2.67
2023-05-22T08:09:26.513Z,5.35
2023-05-22T08:11:53.442Z,8.88
2023-05-22T08:14:22.153Z,2.65
2023-05-22T08:16:49.279Z,2.22
2023-05-22T08:19:16.292Z,4.05
2023-05-22T08:21:43.324Z,4.25
2023-05-22T08:24:10.527Z,1.50
2023-05-22T08:26:37.517Z,5.03
2023-05-22T08:29:04.457Z,6.30
2023-05-22T08:31:31.401Z,2.72
2023-05-22T08:34:02.616Z,4.13
2023-05-22T08:36:33.979Z,4.13
2023-05-22T08:39:01.553Z,4.88
2023-05-22T08:41:29.327Z,6.55
2023-05-22T08:43:56.395Z,4.55
2023-05-22T08:46:28.348Z,3.50
2023-05-22T08:48:57.533Z,5.32
2023-05-22T08:51:28.570Z,4.47
2023-05-22T08:53:59.496Z,2.58
2023-05-22T08:56:28.640Z,2.55
2023-05-22T08:58:58.264Z,3.75
2023-05-22T09:01:25.508Z,4.78
2023-05-22T09:03:52.455Z,7.03
2023-05-22T09:06:19.285Z,5.63
2023-05-22T09:08:46.190Z,3.72
2023-05-22T09:11:13.314Z,5.18
2023-05-22T09:13:41.536Z,2.40
2023-05-22T09:16:13.225Z,4.63
2023-05-22T09:18:42.130Z,3.15
2023-05-22T09:21:25.849Z,3.35
2023-05-22T09:24:01.235Z,6.38
2023-05-22T09:26:29.373Z,8.68
2023-05-22T09:28:57.271Z,6.47
2023-05-22T09:31:24.358Z,1.90
2023-05-22T09:33:51.206Z,6.45
2023-05-22T09:36:18.161Z,4.78
2023-05-22T09:38:45.478Z,6.63
2023-05-22T09:41:12.296Z,2.78
2023-05-22T09:43:39.176Z,3.38
2023-05-22T09:46:06.069Z,3.35
2023-05-22T09:48:38.976Z,4.45
2023-05-22T09:51:07.552Z,4.88
2023-05-22T09:53:35.282Z,3.83
2023-05-22T09:56:05.252Z,4.85
2023-05-22T09:58:35.791Z,3.95
2023-05-22T10:01:04.127Z,10.77
2023-05-22T10:03:32.655Z,4.72
2023-05-22T10:06:01.286Z,4.15
2023-05-22T10:08:29.281Z,3.03
2023-05-22T10:10:56.289Z,6.55
2023-05-22T10:13:25.184Z,2.38
2023-05-22T10:15:52.206Z,6.95
2023-05-22T10:18:19.254Z,4.90
2023-05-22T10:20:49.038Z,4.80
2023-05-22T10:23:16.726Z,5.75
2023-05-22T10:25:44.625Z,2.45
2023-05-22T10:28:14.374Z,1.83
2023-05-22T10:30:44.642Z,3.03
2023-05-22T10:33:18.165Z,3.47
2023-05-22T10:35:52.385Z,4.80
2023-05-22T10:38:45.887Z,3.42
2023-05-22T10:41:13.881Z,4.30
2023-05-22T10:43:45.092Z,3.63
2023-05-22T10:46:13.293Z,4.40
2023-05-22T10:48:41.778Z,2.67
2023-05-22T10:51:09.075Z,1.88
2023-05-22T10:53:36.902Z,3.13
2023-05-22T10:56:11.239Z,3.28
2023-05-22T10:58:38.852Z,3.40
2023-05-22T11:01:14.659Z,4.63
2023-05-22T11:04:06.951Z,5.97
2023-05-22T11:07:02.942Z,1.60
2023-05-22T11:09:34.084Z,4.72
2023-05-22T11:12:21.451Z,4.13
2023-05-22T11:14:58.805Z,1.83
2023-05-22T11:17:30.819Z,7.97
2023-05-22T11:20:18.693Z,5.13
2023-05-22T11:22:52.199Z,5.72
2023-05-22T11:25:20.280Z,3.00
2023-05-22T11:27:48.243Z,3.83
2023-05-22T11:30:16.447Z,2.97
2023-05-22T11:32:46.015Z,2.00
2023-05-22T11:35:20.151Z,2.72
2023-05-22T11:37:48.465Z,4.47
2023-05-22T11:40:17.227Z,5.05
2023-05-22T11:42:44.860Z,7.70
2023-05-22T11:45:11.964Z,2.85
2023-05-22T11:47:39.302Z,2.58
2023-05-22T11:50:09.408Z,1.92
2023-05-22T11:52:37.641Z,5.57
2023-05-22T11:55:08.393Z,2.63
2023-05-22T11:57:36.170Z,3.72
2023-05-22T12:00:06.509Z,3.63
2023-05-22T12:02:33.891Z,4.53
2023-05-22T12:05:00.861Z,4.63
2023-05-22T12:07:28.265Z,4.10
2023-05-22T12:09:58.701Z,7.80
2023-05-22T12:12:26.066Z,3.03
2023-05-22T12:14:53.380Z,3.15
2023-05-22T12:17:20.307Z,6.28
2023-05-22T12:19:48.329Z,3.78
2023-05-22T12:22:15.680Z,2.92
2023-05-22T12:24:46.321Z,2.15
2023-05-22T12:27:14.418Z,5.20
2023-05-22T12:29:42.190Z,3.33
2023-05-22T12:32:11.177Z,4.18
2023-05-22T12:34:45.770Z,2.42
2023-05-22T12:37:25.096Z,3.30
2023-05-22T12:39:59.958Z,5.13
2023-05-22T12:42:28.132Z,5.45
2023-05-22T12:44:56.533Z,4.45
2023-05-22T12:47:25.017Z,4.00
2023-05-22T12:49:52.141Z,2.30
2023-05-22T12:52:19.294Z,2.72
2023-05-22T12:54:46.435Z,3.70
2023-05-22T12:57:13.357Z,1.30
2023-05-22T12:59:41.247Z,1.40
2023-05-22T13:02:08.388Z,3.60
2023-05-22T13:04:35.413Z,5.57
2023-05-22T13:07:02.248Z,3.33
2023-05-22T13:09:29.079Z,3.72
2023-05-22T13:11:56.571Z,5.32
2023-05-22T13:14:23.481Z,3.55
2023-05-22T13:16:50.658Z,3.78
2023-05-22T13:19:17.856Z,4.95
2023-05-22T13:21:44.773Z,4.22
2023-05-22T13:24:11.634Z,2.38
2023-05-22T13:26:38.508Z,2.80
2023-05-22T13:29:05.329Z,3.20
2023-05-22T13:31:37.667Z,6.43
2023-05-22T13:34:05.239Z,4.90
2023-05-22T13:36:32.710Z,11.13
2023-05-22T13:38:59.663Z,3.05
2023-05-22T13:41:26.597Z,4.35
2023-05-22T13:43:53.636Z,5.05
2023-05-22T13:46:22.243Z,2.22
2023-05-22T13:48:49.381Z,3.47
2023-05-22T13:51:16.424Z,5.38
2023-05-22T13:53:43.270Z,5.55
2023-05-22T13:56:10.098Z,4.88
2023-05-22T13:58:37.062Z,3.35
2023-05-22T14:01:03.937Z,6.40
2023-05-22T14:03:30.910Z,4.47
2023-05-22T14:05:57.880Z,8.20
2023-05-22T14:08:25.058Z,2.83
2023-05-22T14:10:52.056Z,3.58
2023-05-22T14:13:19.159Z,2.47
2023-05-22T14:15:49.154Z,1.92
2023-05-22T14:18:16.613Z,5.18
2023-05-22T14:20:44.488Z,3.90
2023-05-22T14:23:12.623Z,4.80
2023-05-22T14:25:45.662Z,2.00
2023-05-22T14:28:13.914Z,3.60
2023-05-22T14:30:41.208Z,3.47
2023-05-22T14:33:08.557Z,4.63
2023-05-22T14:35:35.392Z,3.60
2023-05-22T14:38:02.381Z,4.32
2023-05-22T14:40:29.280Z,3.53
2023-05-22T14:42:56.344Z,2.17
2023-05-22T14:45:23.625Z,3.83
2023-05-22T14:47:50.721Z,3.28
2023-05-22T14:50:20.387Z,3.53
2023-05-22T14:52:51.322Z,3.70
2023-05-22T14:55:18.414Z,2.70
2023-05-22T14:57:45.505Z,3.15
2023-05-22T15:00:13.123Z,2.58
2023-05-22T15:02:40.497Z,4.13
2023-05-22T15:05:07.978Z,3.47
2023-05-22T15:07:43.962Z,2.15
2023-05-22T15:10:13.006Z,2.10
2023-05-22T15:12:39.915Z,5.28
2023-05-22T15:15:07.275Z,3.25
2023-05-22T15:17:34.228Z,4.22
2023-05-22T15:20:01.362Z,4.05
2023-05-22T15:22:28.179Z,3.45
2023-05-22T15:25:15.315Z,8.15
2023-05-22T15:27:42.516Z,3.92
2023-05-22T15:30:09.994Z,4.78
2023-05-22T15:32:38.147Z,3.40
2023-05-22T15:35:06.387Z,5.30
2023-05-22T15:37:36.701Z,10.77
2023-05-22T15:40:04.518Z,3.53
2023-05-22T15:42:31.637Z,6.38
2023-05-22T15:44:59.909Z,2.80
2023-05-22T15:47:26.753Z,11.85
2023-05-22T15:49:53.699Z,3.80
2023-05-22T15:52:22.580Z,2.60
2023-05-22T15:54:49.458Z,3.20
2023-05-22T15:57:16.732Z,5.60
2023-05-22T15:59:43.719Z,4.38
2023-05-22T16:02:10.557Z,4.28
2023-05-22T16:04:37.457Z,2.55
2023-05-22T16:07:04.437Z,4.07
2023-05-22T16:09:32.779Z,5.05
2023-05-22T16:11:59.867Z,7.18
2023-05-22T16:14:26.758Z,4.50
2023-05-22T16:16:53.744Z,6.97
2023-05-22T16:19:20.725Z,4.70
2023-05-22T16:21:47.630Z,2.45
2023-05-22T16:24:14.526Z,4.32
2023-05-22T16:26:41.471Z,3.35
2023-05-22T16:29:09.005Z,5.15
2023-05-22T16:31:36.003Z,5.00
2023-05-22T16:34:03.550Z,5.38
2023-05-22T16:36:30.972Z,5.70
2023-05-22T16:38:57.948Z,5.03
2023-05-22T16:41:24.890Z,7.50
2023-05-22T16:43:51.785Z,4.93
2023-05-22T16:46:18.694Z,6.32
2023-05-22T16:48:45.578Z,3.05
2023-05-22T16:51:12.501Z,5.25
2023-05-22T16:53:41.886Z,6.03
2023-05-22T16:56:08.869Z,4.85
2023-05-22T16:58:35.988Z,5.20
2023-05-22T17:01:03.050Z,5.35
2023-05-22T17:03:30.068Z,4.18
2023-05-22T17:05:57.072Z,6.60
2023-05-22T17:08:23.957Z,3.00
2023-05-22T17:10:51.038Z,3.10
2023-05-22T17:13:20.907Z,6.93
2023-05-22T17:15:51.530Z,4.93
2023-05-22T17:18:19.918Z,6.90
2023-05-22T17:20:50.841Z,4.78
2023-05-22T17:23:18.010Z,4.53
2023-05-22T17:25:46.685Z,4.50
2023-05-22T17:31:19.030Z,9.23
2023-05-22T17:33:54.624Z,6.82
2023-05-22T17:39:09.698Z,5.40
2023-05-22T17:42:23.548Z,4.65
2023-05-22T17:44:50.424Z,5.18
2023-05-22T17:47:32.348Z,9.00
2023-05-22T17:50:14.213Z,5.00
2023-05-22T17:52:54.539Z,3.42
2023-05-22T17:55:24.243Z,5.47
2023-05-22T17:57:51.323Z,4.10
2023-05-22T18:00:18.500Z,10.88
2023-05-22T18:02:45.630Z,3.88
2023-05-22T18:05:12.567Z,4.68
2023-05-22T18:07:39.578Z,5.88
2023-05-22T18:10:07.067Z,6.30
2023-05-22T18:12:35.354Z,7.38
2023-05-22T18:15:04.752Z,6.30
2023-05-22T18:17:32.633Z,10.63
2023-05-22T18:19:59.580Z,3.38
2023-05-22T18:22:26.394Z,5.70
2023-05-22T18:24:53.234Z,3.38
2023-05-22T18:27:20.094Z,6.82
2023-05-22T18:29:46.960Z,3.72
2023-05-22T18:32:13.911Z,5.85
2023-05-22T18:34:41.052Z,5.05
2023-05-22T18:37:07.974Z,4.93
2023-05-22T18:39:34.888Z,7.05
2023-05-22T18:42:01.719Z,6.43
2023-05-22T18:44:28.566Z,6.03
2023-05-22T18:46:55.448Z,5.35
2023-05-22T18:49:22.340Z,3.92
2023-05-22T18:51:49.400Z,6.25
2023-05-22T18:54:16.255Z,6.28
2023-05-22T18:56:43.109Z,6.43
2023-05-22T18:59:09.978Z,4.95
2023-05-22T19:01:36.896Z,7.18
2023-05-22T19:04:05.733Z,7.78
2023-05-22T19:06:32.652Z,6.72
2023-05-22T19:08:59.936Z,4.45
2023-05-22T19:11:27.397Z,4.93
2023-05-22T19:13:54.898Z,6.00
2023-05-22T19:16:21.820Z,4.38
2023-05-22T19:18:48.709Z,6.93
2023-05-22T19:21:15.636Z,8.52
2023-05-22T19:23:42.926Z,4.75
2023-05-22T19:26:09.761Z,5.95
2023-05-22T19:28:36.582Z,5.75
2023-05-22T19:31:03.702Z,7.55
2023-05-22T19:33:33.759Z,5.22
2023-05-22T19:36:01.953Z,5.90
2023-05-22T19:38:28.899Z,5.95
2023-05-22T19:40:55.760Z,10.15
2023-05-22T19:43:22.788Z,12.75
2023-05-22T19:45:49.616Z,9.65
2023-05-22T19:48:16.612Z,5.80
2023-05-22T19:50:43.690Z,13.45
2023-05-22T19:53:10.657Z,11.50
2023-05-22T19:55:37.570Z,7.93
2023-05-22T19:58:04.450Z,9.82
2023-05-22T20:00:31.910Z,8.93
2023-05-22T20:02:58.914Z,16.42
2023-05-22T20:05:26.073Z,7.57
2023-05-22T20:07:52.911Z,11.77
2023-05-22T20:10:20.191Z,9.25
2023-05-22T20:12:47.170Z,9.77
2023-05-22T20:15:15.122Z,11.13
2023-05-22T20:17:42.660Z,8.73
2023-05-22T20:20:09.998Z,10.93
2023-05-22T20:22:36.863Z,9.60
2023-05-22T20:25:05.286Z,9.30
2023-05-22T20:27:32.176Z,13.48
2023-05-22T20:30:00.269Z,11.50
2023-05-22T20:32:27.479Z,8.20
2023-05-22T20:34:55.355Z,11.90
2023-05-22T20:37:23.055Z,10.85
2023-05-22T20:39:50.324Z,10.70
2023-05-22T20:42:18.072Z,14.70
2023-05-22T20:44:44.961Z,9.05
2023-05-22T20:47:11.952Z,12.95
2023-05-22T20:49:38.922Z,13.05
2023-05-22T20:52:05.889Z,24.83
2023-05-22T20:54:34.088Z,12.82
2023-05-22T20:57:01.581Z,9.35
2023-05-22T20:59:29.028Z,12.38
2023-05-22T21:01:57.078Z,9.70
2023-05-22T21:04:24.637Z,10.05
2023-05-22T21:06:51.552Z,9.10
2023-05-22T21:09:18.489Z,8.48
2023-05-22T21:11:45.441Z,10.00
2023-05-22T21:14:12.348Z,10.40
2023-05-22T21:16:40.141Z,9.50
2023-05-22T21:19:07.461Z,9.00
2023-05-22T21:21:36.301Z,8.43
2023-05-22T21:24:03.387Z,15.73
2023-05-22T21:26:30.380Z,9.70
2023-05-22T21:28:57.383Z,9.45
2023-05-22T21:31:24.266Z,9.05
2023-05-22T21:33:51.242Z,6.43
2023-05-22T21:36:18.073Z,8.90
2023-05-22T21:38:45.705Z,7.68
2023-05-22T21:41:13.368Z,5.63
2023-05-22T21:43:40.301Z,8.45
2023-05-22T21:46:07.284Z,6.43
2023-05-22T21:48:34.449Z,7.47
2023-05-22T21:51:01.259Z,7.05
2023-05-22T21:53:28.092Z,7.32
2023-05-22T21:55:54.912Z,6.45
2023-05-22T21:58:21.859Z,11.25
2023-05-22T22:00:48.716Z,7.47
2023-05-22T22:03:15.852Z,8.18
2023-05-22T22:05:42.812Z,9.43
2023-05-22T22:08:09.689Z,5.07
2023-05-22T22:10:36.874Z,6.75
2023-05-22T22:13:03.816Z,7.65
2023-05-22T22:15:32.112Z,8.57
2023-05-22T22:18:02.179Z,6.68
2023-05-22T22:20:43.675Z,5.05
2023-05-22T22:23:12.239Z,8.32
2023-05-22T22:25:39.355Z,6.53
2023-05-22T22:28:07.321Z,7.28
2023-05-22T22:30:35.252Z,9.30
2023-05-22T22:33:02.567Z,4.82
2023-05-22T22:35:29.624Z,6.68
2023-05-22T22:37:56.776Z,6.60
2023-05-22T22:40:24.810Z,5.97
2023-05-22T22:42:53.480Z,7.60
2023-05-22T22:45:20.700Z,6.53
2023-05-22T22:47:48.297Z,7.10
2023-05-22T22:50:15.206Z,5.47
2023-05-22T22:52:45.695Z,5.50
2023-05-22T22:55:13.490Z,3.85
2023-05-22T22:57:43.370Z,5.22
2023-05-22T23:00:13.220Z,6.25
2023-05-22T23:02:40.609Z,7.25
2023-05-22T23:05:08.159Z,6.45
2023-05-22T23:07:35.096Z,5.70
2023-05-22T23:10:01.928Z,4.07
2023-05-22T23:12:28.831Z,6.13
2023-05-22T23:14:55.777Z,4.00
2023-05-22T23:17:22.593Z,7.78
2023-05-22T23:19:49.581Z,3.88
2023-05-22T23:22:16.440Z,8.20
2023-05-22T23:24:43.256Z,4.88
2023-05-22T23:27:10.141Z,7.15
2023-05-22T23:29:36.936Z,4.05
2023-05-22T23:32:03.858Z,6.18
2023-05-22T23:34:30.704Z,4.80
2023-05-22T23:36:57.530Z,5.65
2023-05-22T23:39:24.343Z,4.68
2023-05-22T23:41:54.061Z,4.70
2023-05-22T23:44:21.759Z,7.00
2023-05-22T23:46:50.084Z,6.82
2023-05-22T23:49:16.935Z,7.03
2023-05-22T23:51:43.867Z,4.55
2023-05-22T23:54:11.306Z,8.70
2023-05-22T23:56:38.162Z,5.55
2023-05-22T23:59:05.092Z,6.78
